20 mai 2022

Temps Code Temps Temp. Vue Des nuages Vent METAR/SPECI
19:30
V
29 °C 10 km+ - 320°   320° 5 kt METAR LFBO 201730Z AUTO 32005KT 260V020 CAVOK 29/16 Q1022 NOSIG
19:00
V
29 °C 10 km+ - 300°   300° 6 kt METAR LFBO 201700Z AUTO 30006KT 260V320 CAVOK 29/17 Q1022 NOSIG
18:30
V
30 °C 10 km+ - 290°   290° 6 kt METAR LFBO 201630Z AUTO 29006KT 270V330 CAVOK 30/16 Q1022 NOSIG
18:00
V
30 °C 10 km+ - 140°   140° 3 kt METAR LFBO 201600Z AUTO 14003KT 110V210 CAVOK 30/16 Q1022 NOSIG
17:30
V
30 °C 10 km+ - Var   Var 3 kt METAR LFBO 201530Z AUTO VRB03KT CAVOK 30/15 Q1022 NOSIG
17:00
I
30 °C 2,6 km - 250°   250° 4 kt METAR LFBO 201500Z AUTO 25004KT 150V320 9999 2600 FEW007 30/16 Q1022 NOSIG
16:30
V
30 °C 10 km+ - 250°   250° 4 kt METAR LFBO 201430Z AUTO 25004KT 190V320 CAVOK 30/16 Q1022 NOSIG
16:00
V
30 °C 10 km+ - Var   Var 5 kt METAR LFBO 201400Z AUTO VRB05KT 9999 FEW008 30/17 Q1022 NOSIG
15:30
V
30 °C 10 km+ - 200°   200° 6 kt METAR LFBO 201330Z AUTO 20006KT 140V260 9999 FEW007 SCT190 30/16 Q1022 NOSIG
15:00
V
29 °C 10 km+ - 200°   200° 6 kt METAR LFBO 201300Z AUTO 20006KT 160V240 CAVOK 29/16 Q1022 NOSIG
14:30
V
29 °C 10 km+ - 140°   140° 9 kt METAR LFBO 201230Z AUTO 14009KT 120V180 CAVOK 29/16 Q1022 NOSIG
14:00
V
28 °C 9 km - 140°   140° 11 kt METAR LFBO 201200Z AUTO 14011KT 110V180 9000 FEW007 SCT190 28/16 Q1022 NOSIG
13:30
V
28 °C 8 km - 160°   160° 11 kt METAR LFBO 201130Z AUTO 16011KT 110V190 8000 FEW009 28/16 Q1022 NOSIG
13:00
V
27 °C 8 km - 130°   130° 14 kt METAR LFBO 201100Z AUTO 13014KT 110V170 8000 NSC 27/16 Q1021 NOSIG
12:30
V
27 °C 8 km - 130°   130° 17 kt METAR LFBO 201030Z AUTO 13017KT 100V170 8000 NSC 27/16 Q1021 BECMG 17006KT
12:00
V
26 °C 8 km - 120°   120° 15 kt METAR LFBO 201000Z AUTO 12015KT 8000 NSC 26/16 Q1021 NOSIG
11:30
V
26 °C 8 km - 150°   150° 16 kt METAR LFBO 200930Z AUTO 15016KT 8000 NSC 26/16 Q1020 BECMG 17006KT
11:00
V
24 °C 9 km - 140°   140° 19 kt METAR LFBO 200900Z AUTO 14019KT 9000 NSC 24/16 Q1020 BECMG 17006KT
10:30
V
24 °C 9 km - 140°   140° 19 kt METAR LFBO 200830Z AUTO 14019KT 110V170 9000 NSC 24/16 Q1020 BECMG 17006KT
10:00
V
23 °C 10 km+ - 140°   140° 18 29 kt METAR LFBO 200800Z AUTO 14018G29KT CAVOK 23/15 Q1020 BECMG 14014KT
09:30
V
22 °C 10 km+ - 150°   150° 19 kt METAR LFBO 200730Z AUTO 15019KT 9999 FEW010 22/15 Q1020 TEMPO 14017G28KT
09:00
V
21 °C 10 km+ - 150°   150° 16 26 kt METAR LFBO 200700Z AUTO 15016G26KT CAVOK 21/15 Q1020 NOSIG
08:30
V
21 °C 10 km+ - 140°   140° 16 kt METAR LFBO 200630Z AUTO 14016KT CAVOK 21/15 Q1020 TEMPO 14017G28KT
08:00
V
20 °C 10 km+ - 140°   140° 14 kt METAR LFBO 200600Z AUTO 14014KT CAVOK 20/15 Q1020 TEMPO 14017G28KT
07:30
V
20 °C 10 km+ - 140°   140° 14 kt METAR LFBO 200530Z AUTO 14014KT CAVOK 20/14 Q1020 TEMPO 14017G28KT
07:00
V
19 °C 10 km+ - 140°   140° 14 kt METAR LFBO 200500Z AUTO 14014KT CAVOK 19/14 Q1019 TEMPO 14018G30KT
06:30
V
19 °C 10 km+ - 140°   140° 14 kt METAR LFBO 200430Z AUTO 14014KT CAVOK 19/14 Q1019 TEMPO 14018G30KT
06:00
V
19 °C 10 km+ - 140°   140° 16 kt METAR LFBO 200400Z AUTO 14016KT CAVOK 19/13 Q1019 TEMPO 14018G30KT
05:30
V
19 °C 10 km+ - 140°   140° 16 kt METAR LFBO 200330Z AUTO 14016KT CAVOK 19/14 Q1019 TEMPO 14018G30KT
05:00
V
19 °C 10 km+ - 140°   140° 17 kt METAR LFBO 200300Z AUTO 14017KT CAVOK 19/13 Q1019 TEMPO 14018G30KT
04:30
V
19 °C 10 km+ - 150°   150° 16 26 kt METAR LFBO 200230Z AUTO 15016G26KT CAVOK 19/14 Q1019 NOSIG
04:00
V
19 °C 10 km+ - 150°   150° 16 kt METAR LFBO 200200Z AUTO 15016KT 110V170 CAVOK 19/14 Q1019 TEMPO 14018G30KT
03:30
V
19 °C 10 km+ - 140°   140° 15 kt METAR LFBO 200130Z AUTO 14015KT CAVOK 19/15 Q1019 TEMPO 14018G30KT
03:00
V
19 °C 10 km+ - 140°   140° 15 kt METAR LFBO 200100Z AUTO 14015KT CAVOK 19/15 Q1019 TEMPO 14018G30KT
02:30
V
19 °C 10 km+ - 140°   140° 19 kt METAR LFBO 200030Z AUTO 14019KT CAVOK 19/15 Q1019 TEMPO 14018G30KT
02:00
V
19 °C 10 km+ - 140°   140° 16 kt METAR LFBO 200000Z AUTO 14016KT CAVOK 19/15 Q1019 TEMPO 14018G30KT
01:30
V
19 °C 10 km+ - 140°   140° 17 28 kt METAR LFBO 192330Z AUTO 14017G28KT CAVOK 19/16 Q1020 NOSIG
01:00
V
20 °C 10 km+ - 140°   140° 17 kt METAR LFBO 192300Z AUTO 14017KT 100V160 CAVOK 20/16 Q1020 TEMPO 14015G25KT
00:30
V
20 °C 10 km+ - 140°   140° 15 kt METAR LFBO 192230Z AUTO 14015KT CAVOK 20/16 Q1020 TEMPO 14015G25KT
00:00
V
20 °C 10 km+ - 130°   130° 17 27 kt METAR LFBO 192200Z AUTO 13017G27KT CAVOK 20/16 Q1019 NOSIG

19 mai 2022

Temps Code Temps Temp. Vue Des nuages Vent METAR/SPECI
23:30
V
20 °C 10 km+ - 130°   130° 17 kt METAR LFBO 192130Z AUTO 13017KT CAVOK 20/16 Q1020 TEMPO 14015G25KT
23:00
V
20 °C 10 km+ - 130°   130° 19 kt METAR LFBO 192100Z AUTO 13019KT CAVOK 20/16 Q1020 TEMPO 14015G25KT
22:30
V
21 °C 10 km+ - 140°   140° 17 kt METAR LFBO 192030Z AUTO 14017KT CAVOK 21/15 Q1020 TEMPO 14015G25KT
22:00
V
21 °C 10 km+ - 130°   130° 18 kt METAR LFBO 192000Z AUTO 13018KT CAVOK 21/15 Q1020 TEMPO 14015G25KT
21:30
V
22 °C 10 km+ - 140°   140° 18 kt METAR LFBO 191930Z AUTO 14018KT CAVOK 22/15 Q1019 TEMPO 14015G25KT
21:00
V
22 °C 10 km+ - 140°   140° 19 kt METAR LFBO 191900Z AUTO 14019KT CAVOK 22/15 Q1019 TEMPO 14015G25KT
20:30
V
23 °C 10 km+ - 140°   140° 19 kt METAR LFBO 191830Z AUTO 14019KT CAVOK 23/16 Q1019 TEMPO 14015G25KT
20:00
V
24 °C 10 km+ - 130°   130° 15 kt METAR LFBO 191800Z AUTO 13015KT 9999 FEW010 24/17 Q1019 TEMPO 14015G25KT
19:30
I
24 °C 4,6 km - 140°   140° 18 kt METAR LFBO 191730Z AUTO 14018KT 9999 4600 NSC 24/17 Q1019 TEMPO 14015G25KT
19:00
V
25 °C 8 km - 140°   140° 18 kt METAR LFBO 191700Z AUTO 14018KT 8000 NSC 25/17 Q1019 TEMPO 14015G25KT
18:30
V
26 °C 8 km - 140°   140° 17 kt METAR LFBO 191630Z AUTO 14017KT 8000 NSC 26/17 Q1019 TEMPO 14015G25KT
18:00
I
26 °C 3,6 km - 150°   150° 18 kt METAR LFBO 191600Z AUTO 15018KT 9000 3600 FEW009 26/17 Q1019 TEMPO 14015G25KT
17:30
I
27 °C 3,4 km - 150°   150° 18 kt METAR LFBO 191530Z AUTO 15018KT 9000 3400 FEW011 27/17 Q1019 TEMPO 14015G25KT
17:00
I
27 °C 3,1 km - 140°   140° 18 kt METAR LFBO 191500Z AUTO 14018KT 8000 3100 NSC 27/17 Q1019 TEMPO 14015G25KT
16:30
I
28 °C 3,3 km - 140°   140° 18 kt METAR LFBO 191430Z AUTO 14018KT 110V170 8000 3300 NSC 28/18 Q1019 TEMPO 14015G25KT
16:00
I
28 °C 3,1 km - 140°   140° 18 kt METAR LFBO 191400Z AUTO 14018KT 8000 3100 NSC 28/17 Q1019 NOSIG
15:30
I
27 °C 3,5 km - 140°   140° 19 kt METAR LFBO 191330Z AUTO 14019KT 8000 3500 NSC 27/17 Q1019 NOSIG
15:00
I
27 °C 3,7 km - 140°   140° 18 kt METAR LFBO 191300Z AUTO 14018KT 100V160 8000 3700 NSC 27/16 Q1020 NOSIG
14:30
V
27 °C 8 km - 150°   150° 17 kt METAR LFBO 191230Z AUTO 15017KT 8000 NSC 27/17 Q1020 NOSIG
14:00
I
27 °C 2,1 km - 130°   130° 17 kt METAR LFBO 191200Z AUTO 13017KT 6000 2100 NSC 27/17 Q1020 NOSIG
13:30
I
27 °C 2,1 km - 130°   130° 17 kt METAR LFBO 191130Z AUTO 13017KT 100V170 7000 2100 NSC 27/17 Q1020 NOSIG
13:00
I
26 °C 2,1 km - 140°   140° 19 kt METAR LFBO 191100Z AUTO 14019KT 7000 2100 NSC 26/17 Q1020 NOSIG
12:30
I
25 °C 2,3 km - 140°   140° 16 kt METAR LFBO 191030Z AUTO 14016KT 8000 2300 NSC 25/16 Q1021 NOSIG
12:00
I
25 °C 3,3 km - 130°   130° 18 kt METAR LFBO 191000Z AUTO 13018KT 9999 3300 FEW001 25/16 Q1021 NOSIG
11:30
M
24 °C 5 km - 140°   140° 16 kt METAR LFBO 190930Z AUTO 14016KT 110V170 5000 HZ FEW031 24/16 Q1021 NOSIG
11:00
V
24 °C 10 km+ - 140°   140° 17 kt METAR LFBO 190900Z AUTO 14017KT 9999 FEW001 24/17 Q1021 NOSIG
10:30
V
23 °C 10 km+ - 140°   140° 17 kt METAR LFBO 190830Z AUTO 14017KT 9999 SCT027 23/16 Q1021 NOSIG
10:00
M
22 °C 10 km+ 2.400 ft 130°   130° 18 kt METAR LFBO 190800Z AUTO 13018KT 090V160 9999 BKN024 BKN140 22/16 Q1021 NOSIG
09:30
M
21 °C 10 km+ 2.300 ft 130°   130° 18 kt METAR LFBO 190730Z AUTO 13018KT 9999 BKN023 21/16 Q1021 NOSIG
09:00
M
21 °C 10 km+ 2.100 ft 140°   140° 16 kt METAR LFBO 190700Z AUTO 14016KT 9999 BKN021 BKN150 21/16 Q1021 NOSIG
08:30
V
21 °C 10 km+ 15.000 ft 140°   140° 14 kt METAR LFBO 190630Z AUTO 14014KT 9999 FEW019 BKN150 21/16 Q1021 NOSIG
08:00
V
20 °C 10 km+ - 140°   140° 14 kt METAR LFBO 190600Z AUTO 14014KT CAVOK 20/16 Q1021 NOSIG
07:30
V
20 °C 10 km+ 17.000 ft 140°   140° 12 kt METAR LFBO 190530Z AUTO 14012KT 9999 FEW008 BKN170 20/16 Q1020 TEMPO BKN012
07:00
V
19 °C 10 km+ - 140°   140° 12 kt METAR LFBO 190500Z AUTO 14012KT 9999 FEW012 19/16 Q1020 TEMPO 27010KT BKN012
06:30
V
19 °C 10 km+ - 140°   140° 12 kt METAR LFBO 190430Z AUTO 14012KT CAVOK 19/16 Q1020 TEMPO 27010KT BKN012
06:00
V
19 °C 10 km+ - 140°   140° 14 kt METAR LFBO 190400Z AUTO 14014KT CAVOK 19/16 Q1019 TEMPO 27010KT BKN012
05:30
V
20 °C 10 km+ - 140°   140° 16 kt METAR LFBO 190330Z AUTO 14016KT CAVOK 20/16 Q1019 TEMPO 27010KT BKN012
05:00
V
20 °C 10 km+ - 140°   140° 15 kt METAR LFBO 190300Z AUTO 14015KT CAVOK 20/16 Q1019 TEMPO 27010KT BKN012
04:30
V
20 °C 10 km+ - 130°   130° 14 kt METAR LFBO 190230Z AUTO 13014KT 9999 FEW015 20/16 Q1019 TEMPO 27010KT BKN012
04:00
M
20 °C 10 km+ 1.500 ft 120°   120° 12 kt METAR LFBO 190200Z AUTO 12012KT 090V160 9999 BKN015 20/17 Q1019 TEMPO BKN012
03:30
V
20 °C 10 km+ - 130°   130° 15 kt METAR LFBO 190130Z AUTO 13015KT 9999 FEW017 20/16 Q1019 TEMPO BKN012
03:00
V
20 °C 10 km+ - 140°   140° 12 kt METAR LFBO 190100Z AUTO 14012KT CAVOK 20/15 Q1019 TEMPO BKN012
02:30
V
21 °C 10 km+ - 150°   150° 5 kt METAR LFBO 190030Z AUTO 15005KT 120V200 CAVOK 21/15 Q1019 TEMPO BKN012
02:00
V
21 °C 10 km+ - 210°   210° 5 kt METAR LFBO 190000Z AUTO 21005KT 160V240 CAVOK 21/15 Q1019 TEMPO BKN012
01:30
V
22 °C 10 km+ - 190°   190° 10 kt METAR LFBO 182330Z AUTO 19010KT 130V250 CAVOK 22/15 Q1019 TEMPO BKN012
01:00
V
22 °C 10 km+ - 140°   140° 11 kt METAR LFBO 182300Z AUTO 14011KT CAVOK 22/15 Q1017 NOSIG
00:30
V
22 °C 10 km+ - 140°   140° 12 kt METAR LFBO 182230Z AUTO 14012KT CAVOK 22/15 Q1017 NOSIG
00:00
V
23 °C 10 km+ - 130°   130° 12 kt METAR LFBO 182200Z AUTO 13012KT CAVOK 23/15 Q1017 NOSIG

18 mai 2022

Temps Code Temps Temp. Vue Des nuages Vent METAR/SPECI
23:30
V
24 °C 10 km+ - 130°   130° 10 kt METAR LFBO 182130Z AUTO 13010KT 100V160 CAVOK 24/14 Q1017 NOSIG
23:00
V
25 °C 10 km+ - 130°   130° 11 kt METAR LFBO 182100Z AUTO 13011KT CAVOK 25/13 Q1017 TEMPO 14015G25KT
22:30
V
26 °C 10 km+ - 130°   130° 13 kt METAR LFBO 182030Z AUTO 13013KT CAVOK 26/13 Q1017 TEMPO 14015G25KT
22:00
V
26 °C 10 km+ - 130°   130° 13 kt METAR LFBO 182000Z AUTO 13013KT CAVOK 26/13 Q1016 TEMPO 14015G25KT
21:30
V
27 °C 10 km+ - 130°   130° 12 kt METAR LFBO 181930Z AUTO 13012KT CAVOK 27/13 Q1016 TEMPO 14015G25KT
21:00
V
28 °C 10 km+ - 130°   130° 15 kt METAR LFBO 181900Z AUTO 13015KT CAVOK 28/13 Q1016 TEMPO 14015G25KT
20:30
V
29 °C 10 km+ - 140°   140° 14 kt METAR LFBO 181830Z AUTO 14014KT CAVOK 29/13 Q1016 TEMPO 14015G25KT
20:00
V
29 °C 10 km+ - 140°   140° 16 kt METAR LFBO 181800Z AUTO 14016KT CAVOK 29/13 Q1016 TEMPO 14015G25KT
19:30
V
30 °C 10 km+ - 130°   130° 13 kt METAR LFBO 181730Z AUTO 13013KT 9999 FEW008 30/14 Q1015 TEMPO 14015G25KT
19:00
V
31 °C 10 km+ - 140°   140° 14 kt METAR LFBO 181700Z AUTO 14014KT 9999 FEW010 31/13 Q1015 TEMPO 14015G25KT
18:30
V
32 °C 10 km+ - 120°   120° 12 kt METAR LFBO 181630Z AUTO 12012KT 090V160 CAVOK 32/14 Q1015 TEMPO 14015G25KT
18:00
V
33 °C 10 km+ - 110°   110° 10 kt METAR LFBO 181600Z AUTO 11010KT CAVOK 33/13 Q1015 NOSIG
17:30
V
33 °C 10 km+ - 100°   100° 11 kt METAR LFBO 181530Z AUTO 10011KT 080V140 9999 FEW007 33/14 Q1015 NOSIG
17:00
V
33 °C 10 km+ - 130°   130° 9 kt METAR LFBO 181500Z AUTO 13009KT 070V160 CAVOK 33/14 Q1015 NOSIG
Données plus anciennes

Télécharge notre application

Un accès facile à toute la météo aéronautique sur ton téléphone portable et ta tablette.
Avec de nombreuses fonctionnalités non disponibles sur le site Web, comme la prise en charge hors ligne et une liste personnelle d'aéroports.

Nous et des tiers suivons ton comportement sur Internet sur notre site Web à l'aide de cookies. Si tu continues, nous supposons que tu acceptes notre politique en matière de cookies. Apprendre plus